Details From CYZP - Sandspit
To CYPR - Prince Rupert
Flight Number -
Tags generated
Created
Modified
Stats Distance 79 nm / 146 km
Max Altitude 8,000 ft / 2,438 m
Waypoints 4
Social Downloads 2
Likes 0
Share VATSIM

Download

Looking for another format? Having issues loading an existing format? Contact us
Advertisement - Login to hide

Notes

Basic altitude profile: - Ascent Rate: 2500ft/min - Ascent Speed: 250kts - Cruise Altitude: 35000ft - Cruise Speed: 420kts - Descent Rate: 1500ft/min - Descent Speed: 250kts Options: - Use NATs: yes - Use PACOTS: yes - Use low airways: yes - Use high airways: no

Route

CYZP NILLA V309 WACAL CYPR

ID Type Via Altitude Latitude Longitude Leg Dist Tot Dist Heading (true) Name
O CYZP APT - 0 ft / 0 m 53.25430˚ -131.81375˚ - 0 nm - Sandspit
NILLA FIX - 8,000 ft / 2,438 m 53.79000˚ -131.08333˚ 41 nm 41 nm 39° / 39° -
WACAL FIX V309 (AWY-LO) 5,500 ft / 1,676 m 54.10194˚ -130.65056˚ 24 nm 65 nm 39° / 39° -
O CYPR APT - 0 ft / 0 m 54.28611˚ -130.44472˚ 13 nm 78 nm 33° / 33° Prince Rupert

Altitude Profile

Advertisement - Login to hide

CYZP

Details ICAO CYZP (YZP)
Name Sandspit
Region Canada
Timezone America/Vancouver (UTC-8.0)
Stats Elevation 20 ft / 6 m (AMSL)
Location 53.254303° -131.813752°
Runways 1
Magnetic Variation 17.993° E

METAR

CYZP 141900Z AUTO 24010G16KT 9SM SCT044 BKN210 09/07 A3009 RMK SLP192

Decode

TAF

TAF CYZP 141838Z 1419/1507 24008KT P6SM SCT015 OVC040 TEMPO 1419/1421 5SM -RA BR OVC015 FM142100 24008KT P6SM BKN040 TEMPO 1421/1507 6SM -RA BR BKN020 RMK FCST BASED ON AUTO OBS. NXT FCST BY 150100Z

Decode

Departure Runways

ID Width Length Bearing (true) Bearing (mag) Surface Threshold Offset Overrun Length
12 151 ft / 46 m 5,125 ft / 1,562 m 144.44° 126.45° Asphalt 0 ft / 0 m 0 ft / 0 m
30 151 ft / 46 m 5,125 ft / 1,562 m 324.45° 306.46° Asphalt 0 ft / 0 m 0 ft / 0 m

CYPR

Details ICAO CYPR (YPR)
Name Prince Rupert
Region Canada
Timezone America/Vancouver (UTC-8.0)
Stats Elevation 116 ft / 35 m (AMSL)
Location 54.286114° -130.444717°
Runways 1
Magnetic Variation 18.258° E

METAR

CYPR 141933Z AUTO 14012G19KT 9SM OVC031 08/06 A3008 RMK SLP190

Decode

TAF

TAF CYPR 141838Z 1419/1507 14015G30KT 6SM -RA BR SCT015 OVC030 TEMPO 1419/1422 2SM -RA BR BKN008 OVC015 FM142200 19012KT P6SM BKN030 TEMPO 1422/1507 5SM -SHRA BR BKN015 BECMG 1501/1503 30008KT RMK FCST BASED ON AUTO OBS. NXT FCST BY 150100Z

Decode

Destination Runways

ID Width Length Bearing (true) Bearing (mag) Surface Threshold Offset Overrun Length
13 200 ft / 61 m 6,043 ft / 1,842 m 150.73° 132.47° Asphalt 0 ft / 0 m 0 ft / 0 m
31 200 ft / 61 m 6,043 ft / 1,842 m 330.74° 312.48° Asphalt 0 ft / 0 m 0 ft / 0 m

Approach Navaids

Runway Type Ident Frequency Range Bearing (true) Bearing (mag) Slope Elevation
13 Localiser IPR 109.70 MHz 18 nm / 33 km 152.00° 133.74° - 91 ft / 28 m (AMSL)
13 Glidescope IPR 109.70 MHz 10 nm / 19 km 152.00° 133.74° 3.00° 91 ft / 28 m (AMSL)